Doyon, North Dakota
Current Conditions -  °F | °C
As of 3:15 AM on Wednesday 22 Oct 2014 (Local Time) from KDVL Reporting Station
Clear Clear  
Wind Chill: 14°   Ceiling: Unl
Heat Index: 14°   Visibility: 10mi
Dew Point:   Wind: 22mph
Humidity: 59%   Direction: 170°S
Pressure: 29.69"   Gusts: 28mph
Location:  48.0187°N, 98.6029°W
Report Text: KDVL 220815Z AUTO 17019G24KT 10SM CLR 14/06 A2969 RMK AO1
Loading
Personal Weather Stations






























Interactive Weather Map
Tropical Storm Tracking
New forecast layout! Learn more

10-Day Weather Forecast

Advertisements
Track Severe Weather on mobile